Snover, Michigan
Current Conditions -  °F | °C
As of 12:15 PM on Friday 19 Dec 2014 (Local Time) from KBAX Reporting Station
Scattered Clouds Scattered Clouds  
Wind Chill: 22°   Ceiling: Unl
Heat Index: 29°   Visibility: 10mi
Dew Point: 23°   Wind: 6mph
Humidity: 81%   Direction: 320°NW
Pressure: 30.25"   Gusts: NA
Location:  43.46°N, 82.97°W
Report Text: KBAX 191715Z AUTO 32005KT 10SM SCT017 M02/M05 A3025 RMK AO2 T10191048
Loading
Personal Weather Stations






























Interactive Weather Map New forecast layout! Learn more

10-Day Weather Forecast

Advertisements
Track Severe Weather on mobile